sensor_id;sensor_type;location;lat;lon;timestamp;pressure;altitude;pressure_sealevel;temperature
49557;BMP280;35462;45.048;7.666;2023-06-22T00:08:05;99245.78;;;28.11
49557;BMP280;35462;45.048;7.666;2023-06-22T00:23:25;99227.50;;;28.06
49557;BMP280;35462;45.048;7.666;2023-06-22T00:38:44;99222.91;;;27.96
49557;BMP280;35462;45.048;7.666;2023-06-22T00:54:04;99206.84;;;27.92
49557;BMP280;35462;45.048;7.666;2023-06-22T01:09:32;99187.72;;;27.80
49557;BMP280;35462;45.048;7.666;2023-06-22T01:25:11;99205.88;;;27.72
49557;BMP280;35462;45.048;7.666;2023-06-22T01:40:32;99235.41;;;27.68
49557;BMP280;35462;45.048;7.666;2023-06-22T01:55:52;99203.75;;;27.65
49557;BMP280;35462;45.048;7.666;2023-06-22T02:11:13;99267.28;;;27.49
49557;BMP280;35462;45.048;7.666;2023-06-22T02:26:34;99188.13;;;27.23
49557;BMP280;35462;45.048;7.666;2023-06-22T02:41:55;99221.56;;;27.18
49557;BMP280;35462;45.048;7.666;2023-06-22T02:57:15;99218.69;;;27.05
49557;BMP280;35462;45.048;7.666;2023-06-22T03:12:37;99209.81;;;26.99
49557;BMP280;35462;45.048;7.666;2023-06-22T03:27:57;99239.53;;;26.97
49557;BMP280;35462;45.048;7.666;2023-06-22T03:43:18;99270.94;;;26.93
49557;BMP280;35462;45.048;7.666;2023-06-22T03:58:39;99294.47;;;26.90
49557;BMP280;35462;45.048;7.666;2023-06-22T04:14:02;99252.66;;;26.93
49557;BMP280;35462;45.048;7.666;2023-06-22T04:29:21;99263.38;;;26.80
49557;BMP280;35462;45.048;7.666;2023-06-22T04:44:47;99214.94;;;26.79
49557;BMP280;35462;45.048;7.666;2023-06-22T05:00:07;99163.28;;;26.79
49557;BMP280;35462;45.048;7.666;2023-06-22T05:15:40;99226.53;;;27.14
49557;BMP280;35462;45.048;7.666;2023-06-22T05:30:59;99270.13;;;27.32
49557;BMP280;35462;45.048;7.666;2023-06-22T05:46:19;99291.09;;;27.43
49557;BMP280;35462;45.048;7.666;2023-06-22T06:01:38;99272.22;;;27.50
49557;BMP280;35462;45.048;7.666;2023-06-22T06:16:59;99273.97;;;27.72
49557;BMP280;35462;45.048;7.666;2023-06-22T06:32:18;99259.44;;;30.54
49557;BMP280;35462;45.048;7.666;2023-06-22T06:47:57;99284.25;;;32.74
49557;BMP280;35462;45.048;7.666;2023-06-22T07:03:21;99259.34;;;32.95
49557;BMP280;35462;45.048;7.666;2023-06-22T07:18:51;99288.91;;;34.75
49557;BMP280;35462;45.048;7.666;2023-06-22T07:34:10;99273.03;;;37.02
49557;BMP280;35462;45.048;7.666;2023-06-22T07:49:41;99270.50;;;38.02
49557;BMP280;35462;45.048;7.666;2023-06-22T08:05:15;99249.56;;;36.56
49557;BMP280;35462;45.048;7.666;2023-06-22T08:20:36;99229.31;;;36.34
49557;BMP280;35462;45.048;7.666;2023-06-22T08:35:58;99219.69;;;35.55
49557;BMP280;35462;45.048;7.666;2023-06-22T08:51:20;99204.69;;;35.75
49557;BMP280;35462;45.048;7.666;2023-06-22T09:06:40;99179.31;;;35.85
49557;BMP280;35462;45.048;7.666;2023-06-22T09:22:04;99143.94;;;35.56
49557;BMP280;35462;45.048;7.666;2023-06-22T09:37:34;99147.59;;;35.15
49557;BMP280;35462;45.048;7.666;2023-06-22T09:53:08;99139.41;;;34.82
49557;BMP280;35462;45.048;7.666;2023-06-22T10:08:29;99107.81;;;34.49
49557;BMP280;35462;45.048;7.666;2023-06-22T10:24:05;99106.91;;;34.05
49557;BMP280;35462;45.048;7.666;2023-06-22T10:39:28;99110.56;;;34.08
49557;BMP280;35462;45.048;7.666;2023-06-22T10:54:47;99128.28;;;33.97
49557;BMP280;35462;45.048;7.666;2023-06-22T11:10:07;99118.97;;;34.10
49557;BMP280;35462;45.048;7.666;2023-06-22T11:25:26;99101.91;;;33.95
49557;BMP280;35462;45.048;7.666;2023-06-22T11:40:46;99073.94;;;33.81
49557;BMP280;35462;45.048;7.666;2023-06-22T11:56:05;99034.78;;;33.49
49557;BMP280;35462;45.048;7.666;2023-06-22T12:11:25;98998.88;;;33.47
49557;BMP280;35462;45.048;7.666;2023-06-22T12:26:44;98974.84;;;33.31
49557;BMP280;35462;45.048;7.666;2023-06-22T12:42:11;98996.81;;;33.31
49557;BMP280;35462;45.048;7.666;2023-06-22T12:57:35;99027.34;;;33.10
49557;BMP280;35462;45.048;7.666;2023-06-22T13:13:20;99025.28;;;33.18
49557;BMP280;35462;45.048;7.666;2023-06-22T13:28:39;99039.91;;;32.82
49557;BMP280;35462;45.048;7.666;2023-06-22T13:44:03;99123.03;;;32.82
49557;BMP280;35462;45.048;7.666;2023-06-22T13:59:23;99077.38;;;32.40
49557;BMP280;35462;45.048;7.666;2023-06-22T14:14:43;98990.75;;;32.22
49557;BMP280;35462;45.048;7.666;2023-06-22T14:30:03;98980.34;;;31.91
49557;BMP280;35462;45.048;7.666;2023-06-22T14:45:23;99019.25;;;32.19
49557;BMP280;35462;45.048;7.666;2023-06-22T15:00:44;98986.19;;;31.88
49557;BMP280;35462;45.048;7.666;2023-06-22T15:16:04;98936.34;;;31.82
49557;BMP280;35462;45.048;7.666;2023-06-22T15:31:23;98967.38;;;31.84
49557;BMP280;35462;45.048;7.666;2023-06-22T15:46:42;98956.78;;;31.51
49557;BMP280;35462;45.048;7.666;2023-06-22T16:02:02;98951.13;;;31.64
49557;BMP280;35462;45.048;7.666;2023-06-22T16:17:22;98908.94;;;31.37
49557;BMP280;35462;45.048;7.666;2023-06-22T16:32:57;98887.03;;;31.37
49557;BMP280;35462;45.048;7.666;2023-06-22T16:48:17;98881.75;;;31.32
49557;BMP280;35462;45.048;7.666;2023-06-22T17:03:43;98853.81;;;31.26
49557;BMP280;35462;45.048;7.666;2023-06-22T17:19:03;98814.03;;;31.17
49557;BMP280;35462;45.048;7.666;2023-06-22T17:34:28;98800.50;;;31.12
49557;BMP280;35462;45.048;7.666;2023-06-22T17:49:48;98814.38;;;31.06
49557;BMP280;35462;45.048;7.666;2023-06-22T18:05:07;98801.59;;;30.87
49557;BMP280;35462;45.048;7.666;2023-06-22T18:20:27;98794.66;;;30.86
49557;BMP280;35462;45.048;7.666;2023-06-22T18:35:49;98775.88;;;30.67
49557;BMP280;35462;45.048;7.666;2023-06-22T18:51:10;98755.59;;;30.48
49557;BMP280;35462;45.048;7.666;2023-06-22T19:06:59;98781.28;;;30.45
49557;BMP280;35462;45.048;7.666;2023-06-22T19:22:23;98819.69;;;30.32
49557;BMP280;35462;45.048;7.666;2023-06-22T19:38:01;98845.84;;;30.05
49557;BMP280;35462;45.048;7.666;2023-06-22T19:53:30;98859.56;;;29.85
49557;BMP280;35462;45.048;7.666;2023-06-22T20:08:59;98859.13;;;29.74
49557;BMP280;35462;45.048;7.666;2023-06-22T20:24:25;98865.28;;;29.67
49557;BMP280;35462;45.048;7.666;2023-06-22T20:39:46;98861.88;;;29.53
49557;BMP280;35462;45.048;7.666;2023-06-22T20:55:06;98842.47;;;29.37
49557;BMP280;35462;45.048;7.666;2023-06-22T21:10:26;98848.59;;;29.30
49557;BMP280;35462;45.048;7.666;2023-06-22T21:25:45;98826.41;;;28.92
49557;BMP280;35462;45.048;7.666;2023-06-22T21:41:08;98851.47;;;28.58
49557;BMP280;35462;45.048;7.666;2023-06-22T21:56:27;98830.91;;;28.57
49557;BMP280;35462;45.048;7.666;2023-06-22T22:11:47;98806.59;;;28.59
49557;BMP280;35462;45.048;7.666;2023-06-22T22:27:07;98793.88;;;28.41
49557;BMP280;35462;45.048;7.666;2023-06-22T22:42:26;98773.03;;;28.31
49557;BMP280;35462;45.048;7.666;2023-06-22T22:57:46;98771.47;;;28.22
49557;BMP280;35462;45.048;7.666;2023-06-22T23:13:05;98758.50;;;28.15
49557;BMP280;35462;45.048;7.666;2023-06-22T23:28:24;98758.06;;;28.11
49557;BMP280;35462;45.048;7.666;2023-06-22T23:43:44;98756.19;;;28.06
49557;BMP280;35462;45.048;7.666;2023-06-22T23:59:04;98766.47;;;28.00
